createdAt,value
2023-05-08T00:00:03.998Z,8.91
2023-05-08T00:02:37.776Z,8.92
2023-05-08T00:05:10.723Z,8.88
2023-05-08T00:07:43.780Z,8.86
2023-05-08T00:10:16.692Z,8.88
2023-05-08T00:12:49.546Z,8.86
2023-05-08T00:15:22.530Z,8.83
2023-05-08T00:17:55.347Z,8.83
2023-05-08T00:20:29.323Z,8.83
2023-05-08T00:23:01.972Z,8.81
2023-05-08T00:25:34.972Z,8.78
2023-05-08T00:28:07.756Z,8.77
2023-05-08T00:30:41.177Z,8.79
2023-05-08T00:33:14.085Z,8.82
2023-05-08T00:35:47.234Z,8.81
2023-05-08T00:38:20.204Z,8.80
2023-05-08T00:40:52.974Z,8.79
2023-05-08T00:43:27.690Z,8.79
2023-05-08T00:46:02.854Z,8.80
2023-05-08T00:48:37.226Z,8.80
2023-05-08T00:51:11.731Z,8.81
2023-05-08T00:53:45.811Z,8.81
2023-05-08T00:56:19.058Z,8.82
2023-05-08T00:58:52.275Z,8.83
2023-05-08T01:01:25.774Z,8.84
2023-05-08T01:03:58.612Z,8.84
2023-05-08T01:06:32.074Z,8.82
2023-05-08T01:09:05.867Z,8.84
2023-05-08T01:11:43.805Z,8.82
2023-05-08T01:14:50.879Z,8.81
2023-05-08T01:17:39.373Z,8.83
2023-05-08T01:20:41.122Z,8.81
2023-05-08T01:23:47.602Z,8.81
2023-05-08T01:26:58.984Z,8.80
2023-05-08T01:29:59.147Z,8.80
2023-05-08T01:32:44.542Z,8.79
2023-05-08T01:35:27.784Z,8.78
2023-05-08T01:38:21.744Z,8.78
2023-05-08T01:41:04.766Z,8.76
2023-05-08T01:44:00.513Z,8.75
2023-05-08T01:46:35.245Z,8.76
2023-05-08T01:49:14.145Z,8.77
2023-05-08T01:52:00.542Z,8.78
2023-05-08T01:54:38.197Z,8.77
2023-05-08T01:57:12.457Z,8.75
2023-05-08T01:59:44.402Z,8.76
2023-05-08T02:02:17.559Z,8.77
2023-05-08T02:04:53.341Z,8.76
2023-05-08T02:07:27.157Z,8.78
2023-05-08T02:10:00.629Z,8.79
2023-05-08T02:12:37.550Z,8.77
2023-05-08T02:15:13.182Z,8.75
2023-05-08T02:17:48.505Z,8.72
2023-05-08T02:20:22.809Z,8.68
2023-05-08T02:22:54.717Z,8.67
2023-05-08T02:25:28.218Z,8.68
2023-05-08T02:28:01.071Z,8.68
2023-05-08T02:30:34.077Z,8.68
2023-05-08T02:33:09.643Z,8.68
2023-05-08T02:35:45.310Z,8.72
2023-05-08T02:38:21.138Z,8.73
2023-05-08T02:40:57.947Z,8.72
2023-05-08T02:43:31.005Z,8.72
2023-05-08T02:46:32.812Z,8.72
2023-05-08T02:49:16.608Z,8.68
2023-05-08T02:51:55.835Z,8.66
2023-05-08T02:55:01.352Z,8.65
2023-05-08T02:57:45.148Z,8.65
2023-05-08T03:00:30.366Z,8.65
2023-05-08T03:03:23.275Z,8.61
2023-05-08T03:06:01.088Z,8.59
2023-05-08T03:08:36.441Z,8.58
2023-05-08T03:11:12.908Z,8.59
2023-05-08T03:13:47.885Z,8.57
2023-05-08T03:16:23.620Z,8.55
2023-05-08T03:19:02.982Z,8.54
2023-05-08T03:21:37.601Z,8.56
2023-05-08T03:24:11.803Z,8.54
2023-05-08T03:26:45.278Z,8.53
2023-05-08T03:29:19.374Z,8.54
2023-05-08T03:31:53.815Z,8.53
2023-05-08T03:34:26.997Z,8.52
2023-05-08T03:37:00.159Z,8.53
2023-05-08T03:39:35.268Z,8.54
2023-05-08T03:42:08.471Z,8.55
2023-05-08T03:44:41.756Z,8.54
2023-05-08T03:47:15.253Z,8.53
2023-05-08T03:49:49.688Z,8.56
2023-05-08T03:52:23.133Z,8.58
2023-05-08T03:54:56.070Z,8.57
2023-05-08T03:57:33.538Z,8.56
2023-05-08T04:00:23.270Z,8.55
2023-05-08T04:03:06.336Z,8.54
2023-05-08T04:05:44.328Z,8.51
2023-05-08T04:08:33.245Z,8.54
2023-05-08T04:11:28.997Z,8.53
2023-05-08T04:14:06.755Z,8.49
2023-05-08T04:16:43.552Z,8.45
2023-05-08T04:19:21.645Z,8.41
2023-05-08T04:21:58.342Z,8.40
2023-05-08T04:24:33.024Z,8.39
2023-05-08T04:27:06.889Z,8.39
2023-05-08T04:29:39.979Z,8.38
2023-05-08T04:32:14.300Z,8.36
2023-05-08T04:34:47.722Z,8.39
2023-05-08T04:37:34.617Z,8.40
2023-05-08T04:40:10.264Z,8.40
2023-05-08T04:42:45.694Z,8.41
2023-05-08T04:45:19.810Z,8.44
2023-05-08T04:47:52.661Z,8.44
2023-05-08T04:50:26.378Z,8.44
2023-05-08T04:52:59.500Z,8.43
2023-05-08T04:55:32.774Z,8.47
2023-05-08T04:58:05.881Z,8.43
2023-05-08T05:00:38.907Z,8.38
2023-05-08T05:03:11.930Z,8.38
2023-05-08T05:05:45.016Z,8.40
2023-05-08T05:08:19.117Z,8.43
2023-05-08T05:10:51.900Z,8.41
2023-05-08T05:13:24.915Z,8.42
2023-05-08T05:15:59.443Z,8.41
2023-05-08T05:18:33.721Z,8.43
2023-05-08T05:21:06.769Z,8.45
2023-05-08T05:23:39.890Z,8.45
2023-05-08T05:26:12.980Z,8.47
2023-05-08T05:28:46.601Z,8.47
2023-05-08T05:31:19.990Z,8.49
2023-05-08T05:33:52.895Z,8.52
2023-05-08T05:36:25.973Z,8.53
2023-05-08T05:38:58.769Z,8.57
2023-05-08T05:41:31.684Z,8.61
2023-05-08T05:44:04.718Z,8.63
2023-05-08T05:46:38.306Z,8.63
2023-05-08T05:49:12.580Z,8.65
2023-05-08T05:51:45.736Z,8.69
2023-05-08T05:54:20.010Z,8.75
2023-05-08T05:56:52.906Z,8.81
2023-05-08T05:59:25.980Z,8.88
2023-05-08T06:01:59.232Z,8.92
2023-05-08T06:04:32.475Z,8.96
2023-05-08T06:07:05.721Z,9.02
2023-05-08T06:09:38.658Z,9.01
2023-05-08T06:12:12.413Z,9.01
2023-05-08T06:14:45.086Z,8.97
2023-05-08T06:17:17.922Z,9.00
2023-05-08T06:19:52.830Z,9.01
2023-05-08T06:22:27.104Z,9.08
2023-05-08T06:25:00.150Z,9.12
2023-05-08T06:27:33.283Z,9.15
2023-05-08T06:30:10.982Z,9.16
2023-05-08T06:32:44.261Z,9.18
2023-05-08T06:35:20.150Z,9.20
2023-05-08T06:37:52.889Z,9.27
2023-05-08T06:40:26.612Z,9.32
2023-05-08T06:42:59.704Z,9.39
2023-05-08T06:45:32.597Z,9.44
2023-05-08T06:48:05.654Z,9.50
2023-05-08T06:50:43.050Z,9.54
2023-05-08T06:53:15.983Z,9.57
2023-05-08T06:55:49.311Z,9.62
2023-05-08T06:58:22.322Z,9.67
2023-05-08T07:00:55.163Z,9.72
2023-05-08T07:03:28.132Z,9.76
2023-05-08T07:06:01.013Z,9.80
2023-05-08T07:08:33.881Z,9.86
2023-05-08T07:11:09.161Z,9.94
2023-05-08T07:13:43.675Z,10.01
2023-05-08T07:16:17.174Z,10.06
2023-05-08T07:18:50.092Z,10.13
2023-05-08T07:21:22.930Z,10.17
2023-05-08T07:23:56.544Z,10.21
2023-05-08T07:26:29.405Z,10.25
2023-05-08T07:29:02.209Z,10.29
2023-05-08T07:31:35.034Z,10.32
2023-05-08T07:34:07.966Z,10.34
2023-05-08T07:36:40.688Z,10.40
2023-05-08T07:39:13.553Z,10.46
2023-05-08T07:41:49.109Z,10.53
2023-05-08T07:44:21.044Z,10.59
2023-05-08T07:46:54.045Z,10.70
2023-05-08T07:49:27.364Z,10.81
2023-05-08T07:52:00.096Z,10.89
2023-05-08T07:54:33.453Z,10.95
2023-05-08T07:57:06.467Z,11.02
2023-05-08T07:59:39.561Z,11.10
2023-05-08T08:02:12.433Z,11.17
2023-05-08T08:04:46.010Z,11.18
2023-05-08T08:07:18.917Z,11.18
2023-05-08T08:09:51.812Z,11.19
2023-05-08T08:12:24.588Z,11.25
2023-05-08T08:14:57.534Z,11.29
2023-05-08T08:17:30.322Z,11.30
2023-05-08T08:20:03.403Z,11.31
2023-05-08T08:22:37.336Z,11.32
2023-05-08T08:25:11.462Z,11.34
2023-05-08T08:27:43.852Z,11.35
2023-05-08T08:30:17.981Z,11.38
2023-05-08T08:32:51.175Z,11.44
2023-05-08T08:35:25.527Z,11.48
2023-05-08T08:37:58.067Z,11.49
2023-05-08T08:40:30.997Z,11.48
2023-05-08T08:43:04.124Z,11.44
2023-05-08T08:45:38.416Z,11.43
2023-05-08T08:48:16.456Z,11.40
2023-05-08T08:50:50.266Z,11.40
2023-05-08T08:53:28.511Z,11.42
2023-05-08T08:56:02.801Z,11.41
2023-05-08T08:58:47.565Z,11.38
2023-05-08T09:01:21.900Z,11.38
2023-05-08T09:03:54.965Z,11.35
2023-05-08T09:06:29.282Z,11.37
2023-05-08T09:09:02.133Z,11.38
2023-05-08T09:11:35.972Z,11.39
2023-05-08T09:14:09.795Z,11.44
2023-05-08T09:16:42.823Z,11.46
2023-05-08T09:19:17.314Z,11.47
2023-05-08T09:21:51.475Z,11.48
2023-05-08T09:24:24.836Z,11.47
2023-05-08T09:26:57.532Z,11.46
2023-05-08T09:29:30.384Z,11.46
2023-05-08T09:32:04.404Z,11.51
2023-05-08T09:34:37.308Z,11.57
2023-05-08T09:37:14.390Z,11.57
2023-05-08T09:39:48.051Z,11.63
2023-05-08T09:42:21.420Z,11.67
2023-05-08T09:44:55.837Z,11.70
2023-05-08T09:47:27.721Z,11.74
2023-05-08T09:50:09.469Z,11.82
2023-05-08T09:52:47.813Z,11.89
2023-05-08T09:55:20.847Z,11.93
2023-05-08T09:57:59.274Z,11.97
2023-05-08T10:00:32.379Z,11.97
2023-05-08T10:03:06.288Z,11.95
2023-05-08T10:05:40.993Z,11.93
2023-05-08T10:08:27.073Z,11.90
2023-05-08T10:11:17.242Z,11.91
2023-05-08T10:13:50.622Z,11.91
2023-05-08T10:16:25.198Z,11.92
2023-05-08T10:19:03.491Z,11.91
2023-05-08T10:21:38.703Z,11.91
2023-05-08T10:24:16.767Z,11.90
2023-05-08T10:27:06.949Z,11.89
2023-05-08T10:29:35.948Z,11.85
2023-05-08T10:32:11.615Z,11.80
2023-05-08T10:34:45.621Z,11.77
2023-05-08T10:37:20.008Z,11.81
2023-05-08T10:39:53.421Z,11.81
2023-05-08T10:42:27.183Z,11.78
2023-05-08T10:45:00.118Z,11.79
2023-05-08T10:47:54.801Z,11.79
2023-05-08T10:50:44.386Z,11.76
2023-05-08T10:53:42.295Z,11.70
2023-05-08T10:56:15.666Z,11.66
2023-05-08T10:58:48.468Z,11.66
2023-05-08T11:01:21.974Z,11.68
2023-05-08T11:03:58.756Z,11.69
2023-05-08T11:06:50.644Z,11.70
2023-05-08T11:09:30.822Z,11.70
2023-05-08T11:12:26.433Z,11.70
2023-05-08T11:15:10.533Z,11.71
2023-05-08T11:17:45.559Z,11.67
2023-05-08T11:20:18.377Z,11.66
2023-05-08T11:22:51.491Z,11.67
2023-05-08T11:25:29.162Z,11.67
2023-05-08T11:28:10.985Z,11.63
2023-05-08T11:30:45.802Z,11.61
2023-05-08T11:33:19.341Z,11.62
2023-05-08T11:36:20.305Z,11.62
2023-05-08T11:39:13.230Z,11.58
2023-05-08T11:41:47.762Z,11.49
2023-05-08T11:44:25.815Z,11.41
2023-05-08T11:47:00.160Z,11.39
2023-05-08T11:49:32.531Z,11.40
2023-05-08T11:52:06.556Z,11.38
2023-05-08T11:54:38.687Z,11.34
2023-05-08T11:57:11.693Z,11.32
2023-05-08T11:59:45.210Z,11.30
2023-05-08T12:02:18.208Z,11.32
2023-05-08T12:04:51.232Z,11.31
2023-05-08T12:07:24.134Z,11.33
2023-05-08T12:09:57.087Z,11.34
2023-05-08T12:12:45.663Z,11.32
2023-05-08T12:15:19.023Z,11.33
2023-05-08T12:18:03.158Z,11.32
2023-05-08T12:20:36.283Z,11.31
2023-05-08T12:23:10.458Z,11.33
2023-05-08T12:25:42.492Z,11.38
2023-05-08T12:28:15.523Z,11.40
2023-05-08T12:30:49.031Z,11.39
2023-05-08T12:33:22.766Z,11.40
2023-05-08T12:35:57.109Z,11.39
2023-05-08T12:38:30.806Z,11.36
2023-05-08T12:41:06.875Z,11.38
2023-05-08T12:43:40.172Z,11.41
2023-05-08T12:46:14.914Z,11.42
2023-05-08T12:48:48.017Z,11.43
2023-05-08T12:51:21.074Z,11.46
2023-05-08T12:53:53.981Z,11.46
2023-05-08T12:56:26.927Z,11.48
2023-05-08T12:59:01.632Z,11.49
2023-05-08T13:01:35.843Z,11.50
2023-05-08T13:04:12.076Z,11.52
2023-05-08T13:06:46.356Z,11.54
2023-05-08T13:09:23.630Z,11.59
2023-05-08T13:11:56.827Z,11.60
2023-05-08T13:14:30.278Z,11.63
2023-05-08T13:17:03.171Z,11.66
2023-05-08T13:19:36.287Z,11.69
2023-05-08T13:22:09.214Z,11.70
2023-05-08T13:24:42.044Z,11.71
2023-05-08T13:27:15.665Z,11.77
2023-05-08T13:29:48.696Z,11.82
2023-05-08T13:32:21.533Z,11.82
2023-05-08T13:34:57.699Z,11.85
2023-05-08T13:37:29.270Z,11.87
2023-05-08T13:40:02.358Z,11.90
2023-05-08T13:42:35.771Z,11.91
2023-05-08T13:45:12.369Z,11.94
2023-05-08T13:47:47.037Z,11.97
2023-05-08T13:50:22.058Z,11.96
2023-05-08T13:52:55.362Z,11.95
2023-05-08T13:55:28.345Z,11.94
2023-05-08T13:58:01.358Z,11.94
2023-05-08T14:00:34.916Z,11.94
2023-05-08T14:03:07.848Z,11.98
2023-05-08T14:05:40.978Z,12.01
2023-05-08T14:08:13.843Z,12.04
2023-05-08T14:10:47.010Z,12.07
2023-05-08T14:13:20.536Z,12.08
2023-05-08T14:15:53.430Z,12.07
2023-05-08T14:18:26.384Z,12.02
2023-05-08T14:20:59.181Z,11.99
2023-05-08T14:23:32.417Z,11.98
2023-05-08T14:26:06.142Z,11.96
2023-05-08T14:28:39.377Z,11.93
2023-05-08T14:31:12.250Z,11.93
2023-05-08T14:33:45.052Z,11.94
2023-05-08T14:36:18.311Z,11.94
2023-05-08T14:38:51.818Z,11.94
2023-05-08T14:41:26.925Z,11.96
2023-05-08T14:44:00.313Z,11.96
2023-05-08T14:46:33.837Z,11.94
2023-05-08T14:49:06.906Z,11.93
2023-05-08T14:51:40.340Z,11.93
2023-05-08T14:54:13.302Z,11.94
2023-05-08T14:56:47.685Z,11.96
2023-05-08T14:59:20.830Z,12.00
2023-05-08T15:01:53.781Z,12.00
2023-05-08T15:04:26.722Z,11.99
2023-05-08T15:06:59.760Z,12.01
2023-05-08T15:09:32.916Z,12.00
2023-05-08T15:12:05.991Z,12.00
2023-05-08T15:14:39.522Z,12.01
2023-05-08T15:17:12.283Z,12.01
2023-05-08T15:19:46.363Z,12.03
2023-05-08T15:22:19.369Z,12.04
2023-05-08T15:24:52.311Z,12.07
2023-05-08T15:27:25.401Z,12.08
2023-05-08T15:29:58.346Z,12.10
2023-05-08T15:32:31.565Z,12.12
2023-05-08T15:35:05.061Z,12.15
2023-05-08T15:37:38.781Z,12.15
2023-05-08T15:40:12.519Z,12.13
2023-05-08T15:42:45.425Z,12.15
2023-05-08T15:45:18.499Z,12.14
2023-05-08T15:47:51.409Z,12.13
2023-05-08T15:50:24.410Z,12.13
2023-05-08T15:52:57.259Z,12.13
2023-05-08T15:55:30.280Z,12.13
2023-05-08T15:58:03.504Z,12.13
2023-05-08T16:00:44.517Z,12.15
2023-05-08T16:03:11.974Z,12.13
2023-05-08T16:05:45.127Z,12.11
2023-05-08T16:08:18.706Z,12.10
2023-05-08T16:10:51.723Z,12.08
2023-05-08T16:13:24.620Z,12.05
2023-05-08T16:16:06.481Z,12.02
2023-05-08T16:18:39.555Z,11.99
2023-05-08T16:21:13.498Z,11.99
2023-05-08T16:23:46.457Z,11.97
2023-05-08T16:26:20.491Z,11.94
2023-05-08T16:28:53.423Z,11.93
2023-05-08T16:31:26.413Z,11.92
2023-05-08T16:33:59.612Z,11.92
2023-05-08T16:36:32.599Z,11.92
2023-05-08T16:39:05.450Z,11.92
2023-05-08T16:41:38.753Z,11.91
2023-05-08T16:44:11.496Z,11.91
2023-05-08T16:46:44.744Z,11.91
2023-05-08T16:49:17.658Z,11.91
2023-05-08T16:51:50.479Z,11.90
2023-05-08T16:54:23.450Z,11.90
2023-05-08T16:56:56.396Z,11.88
2023-05-08T16:59:29.248Z,11.87
2023-05-08T17:02:02.307Z,11.87
2023-05-08T17:04:35.638Z,11.86
2023-05-08T17:07:08.561Z,11.87
2023-05-08T17:09:41.785Z,11.86
2023-05-08T17:12:14.998Z,11.87
2023-05-08T17:14:48.258Z,11.87
2023-05-08T17:17:21.153Z,11.86
2023-05-08T17:19:54.020Z,11.84
2023-05-08T17:22:26.910Z,11.82
2023-05-08T17:24:59.725Z,11.85
2023-05-08T17:27:34.321Z,11.86
2023-05-08T17:30:10.807Z,11.86
2023-05-08T17:32:44.552Z,11.88
2023-05-08T17:35:17.625Z,11.87
2023-05-08T17:37:51.402Z,11.88
2023-05-08T17:40:26.293Z,11.89
2023-05-08T17:43:00.649Z,11.88
2023-05-08T17:45:34.426Z,11.88
2023-05-08T17:48:07.725Z,11.87
2023-05-08T17:50:42.372Z,11.86
2023-05-08T17:53:15.053Z,11.85
2023-05-08T17:55:48.662Z,11.85
2023-05-08T17:58:21.526Z,11.84
2023-05-08T18:00:55.540Z,11.84
2023-05-08T18:03:28.483Z,11.83
2023-05-08T18:06:01.663Z,11.86
2023-05-08T18:08:36.095Z,11.87
2023-05-08T18:11:10.804Z,11.85
2023-05-08T18:13:44.626Z,11.84
2023-05-08T18:16:21.401Z,11.83
2023-05-08T18:18:54.241Z,11.80
2023-05-08T18:21:28.659Z,11.77
2023-05-08T18:24:01.635Z,11.73
2023-05-08T18:26:34.625Z,11.69
2023-05-08T18:29:07.759Z,11.67
2023-05-08T18:31:40.980Z,11.63
2023-05-08T18:34:14.072Z,11.57
2023-05-08T18:36:47.146Z,11.52
2023-05-08T18:39:20.149Z,11.49
2023-05-08T18:41:53.158Z,11.45
2023-05-08T18:44:26.131Z,11.40
2023-05-08T18:46:58.996Z,11.32
2023-05-08T18:49:32.084Z,11.27
2023-05-08T18:52:05.542Z,11.19
2023-05-08T18:54:38.765Z,11.14
2023-05-08T18:57:11.849Z,11.09
2023-05-08T18:59:44.801Z,11.03
2023-05-08T19:02:17.604Z,10.98
2023-05-08T19:04:50.304Z,10.92
2023-05-08T19:07:23.142Z,10.86
2023-05-08T19:09:57.678Z,10.82
2023-05-08T19:12:29.782Z,10.80
2023-05-08T19:15:02.868Z,10.78
2023-05-08T19:17:38.963Z,10.76
2023-05-08T19:20:13.845Z,10.74
2023-05-08T19:22:47.454Z,10.73
2023-05-08T19:25:20.414Z,10.71
2023-05-08T19:27:53.396Z,10.68
2023-05-08T19:30:26.229Z,10.68
2023-05-08T19:32:59.599Z,10.66
2023-05-08T19:35:32.814Z,10.67
2023-05-08T19:38:05.752Z,10.67
2023-05-08T19:40:52.520Z,10.66
2023-05-08T19:43:13.572Z,10.66
2023-05-08T19:45:47.252Z,10.63
2023-05-08T19:48:20.511Z,10.63
2023-05-08T19:50:55.006Z,10.61
2023-05-08T19:53:26.919Z,10.62
2023-05-08T19:55:59.685Z,10.61
2023-05-08T19:58:33.157Z,10.61
2023-05-08T20:01:06.247Z,10.61
2023-05-08T20:03:39.735Z,10.61
2023-05-08T20:06:13.148Z,10.61
2023-05-08T20:08:46.033Z,10.60
2023-05-08T20:11:19.033Z,10.58
2023-05-08T20:13:52.098Z,10.59
2023-05-08T20:16:25.157Z,10.59
2023-05-08T20:18:58.187Z,10.63
2023-05-08T20:21:32.641Z,10.67
2023-05-08T20:24:05.838Z,10.68
2023-05-08T20:26:39.323Z,10.67
2023-05-08T20:29:12.937Z,10.66
2023-05-08T20:31:45.925Z,10.64
2023-05-08T20:34:21.228Z,10.63
2023-05-08T20:36:53.463Z,10.65
2023-05-08T20:39:26.732Z,10.67
2023-05-08T20:41:59.598Z,10.68
2023-05-08T20:44:32.502Z,10.70
2023-05-08T20:47:05.457Z,10.69
2023-05-08T20:49:38.189Z,10.67
2023-05-08T20:52:11.066Z,10.64
2023-05-08T20:54:45.380Z,10.62
2023-05-08T20:57:18.747Z,10.62
2023-05-08T20:59:51.740Z,10.60
2023-05-08T21:02:24.746Z,10.61
2023-05-08T21:04:57.547Z,10.63
2023-05-08T21:07:30.724Z,10.62
2023-05-08T21:10:03.507Z,10.61
2023-05-08T21:12:36.928Z,10.63
2023-05-08T21:15:10.632Z,10.61
2023-05-08T21:17:44.440Z,10.58
2023-05-08T21:20:17.511Z,10.56
2023-05-08T21:22:50.495Z,10.53
2023-05-08T21:25:23.538Z,10.52
2023-05-08T21:27:56.528Z,10.53
2023-05-08T21:30:29.477Z,10.56
2023-05-08T21:33:03.340Z,10.57
2023-05-08T21:35:36.592Z,10.56
2023-05-08T21:38:11.344Z,10.52
2023-05-08T21:40:45.066Z,10.49
2023-05-08T21:43:17.809Z,10.44
2023-05-08T21:45:50.661Z,10.40
2023-05-08T21:48:24.646Z,10.37
2023-05-08T21:50:57.457Z,10.37
2023-05-08T21:53:30.286Z,10.38
2023-05-08T21:56:03.185Z,10.36
2023-05-08T21:58:36.068Z,10.32
2023-05-08T22:01:09.090Z,10.29
2023-05-08T22:03:42.075Z,10.26
2023-05-08T22:06:14.979Z,10.25
2023-05-08T22:08:47.716Z,10.23
2023-05-08T22:11:20.929Z,10.22
2023-05-08T22:13:53.648Z,10.23
2023-05-08T22:16:26.787Z,10.23
2023-05-08T22:18:59.763Z,10.22
2023-05-08T22:21:33.377Z,10.22
2023-05-08T22:24:06.697Z,10.23
2023-05-08T22:26:40.029Z,10.21
2023-05-08T22:29:12.774Z,10.16
2023-05-08T22:31:47.657Z,10.12
2023-05-08T22:34:20.622Z,10.12
2023-05-08T22:36:53.307Z,10.11
2023-05-08T22:39:26.570Z,10.12
2023-05-08T22:42:00.016Z,10.15
2023-05-08T22:44:32.957Z,10.16
2023-05-08T22:47:06.116Z,10.13
2023-05-08T22:49:41.692Z,10.10
2023-05-08T22:52:14.355Z,10.09
2023-05-08T22:54:47.168Z,10.09
2023-05-08T22:57:19.973Z,10.07
2023-05-08T22:59:52.750Z,10.04
2023-05-08T23:02:25.557Z,10.02
2023-05-08T23:04:58.284Z,9.99
2023-05-08T23:07:31.192Z,9.99
2023-05-08T23:10:04.170Z,9.99
2023-05-08T23:12:37.353Z,9.95
2023-05-08T23:15:11.671Z,9.94
2023-05-08T23:17:45.626Z,9.92
2023-05-08T23:20:18.551Z,9.91
2023-05-08T23:22:51.364Z,9.89
2023-05-08T23:25:24.416Z,9.88
2023-05-08T23:27:57.309Z,9.85
2023-05-08T23:30:30.274Z,9.83
2023-05-08T23:33:03.246Z,9.79
2023-05-08T23:35:36.002Z,9.73
2023-05-08T23:38:08.657Z,9.72
2023-05-08T23:40:41.395Z,9.69
2023-05-08T23:43:14.449Z,9.69
2023-05-08T23:45:47.406Z,9.70
2023-05-08T23:48:20.296Z,9.69
2023-05-08T23:50:53.854Z,9.67
2023-05-08T23:53:26.729Z,9.64
2023-05-08T23:55:59.420Z,9.59
2023-05-08T23:58:33.065Z,9.54
